sensor_id;sensor_type;location;lat;lon;timestamp;P1;durP1;ratioP1;P2;durP2;ratioP2
35306;SDS011;21420;52.196;21.416;2022-08-25T00:01:57;11.63;;;3.95;;
35306;SDS011;21420;52.196;21.416;2022-08-25T00:04:23;15.98;;;4.17;;
35306;SDS011;21420;52.196;21.416;2022-08-25T00:06:51;15.78;;;4.12;;
35306;SDS011;21420;52.196;21.416;2022-08-25T00:09:21;17.60;;;4.25;;
35306;SDS011;21420;52.196;21.416;2022-08-25T00:11:49;20.10;;;4.58;;
35306;SDS011;21420;52.196;21.416;2022-08-25T00:14:18;13.75;;;4.58;;
35306;SDS011;21420;52.196;21.416;2022-08-25T00:16:51;14.80;;;4.20;;
35306;SDS011;21420;52.196;21.416;2022-08-25T00:19:20;17.25;;;4.78;;
35306;SDS011;21420;52.196;21.416;2022-08-25T00:21:49;12.03;;;3.83;;
35306;SDS011;21420;52.196;21.416;2022-08-25T00:24:18;14.58;;;4.00;;
35306;SDS011;21420;52.196;21.416;2022-08-25T00:26:46;19.23;;;4.08;;
35306;SDS011;21420;52.196;21.416;2022-08-25T00:29:16;12.18;;;4.30;;
35306;SDS011;21420;52.196;21.416;2022-08-25T00:31:43;20.48;;;4.12;;
35306;SDS011;21420;52.196;21.416;2022-08-25T00:34:11;14.53;;;4.10;;
35306;SDS011;21420;52.196;21.416;2022-08-25T00:36:42;16.62;;;4.67;;
35306;SDS011;21420;52.196;21.416;2022-08-25T00:39:09;12.50;;;4.28;;
35306;SDS011;21420;52.196;21.416;2022-08-25T00:41:37;10.85;;;4.28;;
35306;SDS011;21420;52.196;21.416;2022-08-25T00:44:08;15.48;;;4.53;;
35306;SDS011;21420;52.196;21.416;2022-08-25T00:46:42;15.90;;;4.25;;
35306;SDS011;21420;52.196;21.416;2022-08-25T00:51:52;17.55;;;4.22;;
35306;SDS011;21420;52.196;21.416;2022-08-25T00:54:33;13.22;;;4.20;;
35306;SDS011;21420;52.196;21.416;2022-08-25T00:57:05;14.47;;;4.08;;
35306;SDS011;21420;52.196;21.416;2022-08-25T00:59:34;12.90;;;3.92;;
35306;SDS011;21420;52.196;21.416;2022-08-25T01:02:01;12.98;;;4.40;;
35306;SDS011;21420;52.196;21.416;2022-08-25T01:04:31;16.32;;;5.45;;
35306;SDS011;21420;52.196;21.416;2022-08-25T01:06:59;13.05;;;4.45;;
35306;SDS011;21420;52.196;21.416;2022-08-25T01:09:27;12.35;;;4.15;;
35306;SDS011;21420;52.196;21.416;2022-08-25T01:11:57;14.18;;;4.62;;
35306;SDS011;21420;52.196;21.416;2022-08-25T01:14:24;13.22;;;3.70;;
35306;SDS011;21420;52.196;21.416;2022-08-25T01:16:52;14.65;;;3.77;;
35306;SDS011;21420;52.196;21.416;2022-08-25T01:19:19;10.72;;;3.67;;
35306;SDS011;21420;52.196;21.416;2022-08-25T01:21:48;15.35;;;3.80;;
35306;SDS011;21420;52.196;21.416;2022-08-25T01:27:08;17.15;;;4.30;;
35306;SDS011;21420;52.196;21.416;2022-08-25T01:29:35;12.80;;;4.47;;
35306;SDS011;21420;52.196;21.416;2022-08-25T01:32:04;17.75;;;4.85;;
35306;SDS011;21420;52.196;21.416;2022-08-25T01:34:35;13.30;;;4.05;;
35306;SDS011;21420;52.196;21.416;2022-08-25T01:37:05;17.05;;;4.10;;
35306;SDS011;21420;52.196;21.416;2022-08-25T01:39:34;14.63;;;4.10;;
35306;SDS011;21420;52.196;21.416;2022-08-25T01:44:43;13.72;;;4.00;;
35306;SDS011;21420;52.196;21.416;2022-08-25T01:47:12;12.75;;;3.87;;
35306;SDS011;21420;52.196;21.416;2022-08-25T01:49:39;10.75;;;4.58;;
35306;SDS011;21420;52.196;21.416;2022-08-25T01:54:47;13.08;;;4.17;;
35306;SDS011;21420;52.196;21.416;2022-08-25T01:57:13;11.57;;;4.35;;
35306;SDS011;21420;52.196;21.416;2022-08-25T01:59:40;17.87;;;4.72;;
35306;SDS011;21420;52.196;21.416;2022-08-25T02:02:06;13.25;;;4.40;;
35306;SDS011;21420;52.196;21.416;2022-08-25T02:04:33;14.23;;;4.72;;
35306;SDS011;21420;52.196;21.416;2022-08-25T02:07:00;16.97;;;4.40;;
35306;SDS011;21420;52.196;21.416;2022-08-25T02:09:30;15.53;;;4.95;;
35306;SDS011;21420;52.196;21.416;2022-08-25T02:11:57;13.65;;;5.08;;
35306;SDS011;21420;52.196;21.416;2022-08-25T02:14:23;20.80;;;5.47;;
35306;SDS011;21420;52.196;21.416;2022-08-25T02:19:35;15.30;;;5.42;;
35306;SDS011;21420;52.196;21.416;2022-08-25T02:22:02;22.32;;;6.58;;
35306;SDS011;21420;52.196;21.416;2022-08-25T02:24:29;12.98;;;5.40;;
35306;SDS011;21420;52.196;21.416;2022-08-25T02:26:56;20.02;;;6.10;;
35306;SDS011;21420;52.196;21.416;2022-08-25T02:29:22;21.35;;;5.58;;
35306;SDS011;21420;52.196;21.416;2022-08-25T02:31:49;18.45;;;6.47;;
35306;SDS011;21420;52.196;21.416;2022-08-25T02:34:15;25.40;;;5.97;;
35306;SDS011;21420;52.196;21.416;2022-08-25T02:36:41;16.65;;;5.60;;
35306;SDS011;21420;52.196;21.416;2022-08-25T02:39:08;19.82;;;6.28;;
35306;SDS011;21420;52.196;21.416;2022-08-25T02:41:36;22.58;;;6.83;;
35306;SDS011;21420;52.196;21.416;2022-08-25T02:44:05;21.05;;;6.80;;
35306;SDS011;21420;52.196;21.416;2022-08-25T02:49:00;15.35;;;6.25;;
35306;SDS011;21420;52.196;21.416;2022-08-25T02:51:26;22.20;;;6.65;;
35306;SDS011;21420;52.196;21.416;2022-08-25T02:53:55;25.40;;;7.53;;
35306;SDS011;21420;52.196;21.416;2022-08-25T02:56:23;24.07;;;7.15;;
35306;SDS011;21420;52.196;21.416;2022-08-25T02:58:51;29.90;;;7.12;;
35306;SDS011;21420;52.196;21.416;2022-08-25T03:01:17;27.98;;;7.60;;
35306;SDS011;21420;52.196;21.416;2022-08-25T03:03:44;27.65;;;6.70;;
35306;SDS011;21420;52.196;21.416;2022-08-25T03:06:13;20.27;;;6.67;;
35306;SDS011;21420;52.196;21.416;2022-08-25T03:08:44;27.15;;;7.65;;
35306;SDS011;21420;52.196;21.416;2022-08-25T03:11:10;22.52;;;7.03;;
35306;SDS011;21420;52.196;21.416;2022-08-25T03:13:37;23.22;;;7.97;;
35306;SDS011;21420;52.196;21.416;2022-08-25T03:16:04;27.13;;;7.22;;
35306;SDS011;21420;52.196;21.416;2022-08-25T03:18:31;19.10;;;6.35;;
35306;SDS011;21420;52.196;21.416;2022-08-25T03:20:58;19.27;;;6.42;;
35306;SDS011;21420;52.196;21.416;2022-08-25T03:23:25;19.60;;;6.50;;
35306;SDS011;21420;52.196;21.416;2022-08-25T03:25:54;26.33;;;7.67;;
35306;SDS011;21420;52.196;21.416;2022-08-25T03:28:39;24.87;;;7.25;;
35306;SDS011;21420;52.196;21.416;2022-08-25T03:31:06;23.20;;;7.28;;
35306;SDS011;21420;52.196;21.416;2022-08-25T03:33:33;28.25;;;7.65;;
35306;SDS011;21420;52.196;21.416;2022-08-25T03:36:01;26.70;;;8.13;;
35306;SDS011;21420;52.196;21.416;2022-08-25T03:38:27;23.12;;;8.13;;
35306;SDS011;21420;52.196;21.416;2022-08-25T03:40:54;29.77;;;9.18;;
35306;SDS011;21420;52.196;21.416;2022-08-25T03:43:20;28.83;;;8.25;;
35306;SDS011;21420;52.196;21.416;2022-08-25T03:45:47;28.83;;;9.05;;
35306;SDS011;21420;52.196;21.416;2022-08-25T03:48:14;30.17;;;8.38;;
35306;SDS011;21420;52.196;21.416;2022-08-25T03:50:48;30.97;;;8.43;;
35306;SDS011;21420;52.196;21.416;2022-08-25T03:53:18;31.30;;;8.30;;
35306;SDS011;21420;52.196;21.416;2022-08-25T03:55:45;30.25;;;9.60;;
35306;SDS011;21420;52.196;21.416;2022-08-25T03:58:12;33.20;;;8.08;;
35306;SDS011;21420;52.196;21.416;2022-08-25T04:00:39;36.95;;;8.83;;
35306;SDS011;21420;52.196;21.416;2022-08-25T04:03:05;27.02;;;8.45;;
35306;SDS011;21420;52.196;21.416;2022-08-25T04:05:32;31.77;;;9.05;;
35306;SDS011;21420;52.196;21.416;2022-08-25T04:07:58;29.85;;;8.63;;
35306;SDS011;21420;52.196;21.416;2022-08-25T04:10:26;29.92;;;8.58;;
35306;SDS011;21420;52.196;21.416;2022-08-25T04:12:52;43.40;;;10.08;;
35306;SDS011;21420;52.196;21.416;2022-08-25T04:15:20;27.25;;;9.20;;
35306;SDS011;21420;52.196;21.416;2022-08-25T04:17:46;32.88;;;8.85;;
35306;SDS011;21420;52.196;21.416;2022-08-25T04:20:13;36.58;;;9.70;;
35306;SDS011;21420;52.196;21.416;2022-08-25T04:22:39;29.10;;;8.50;;
35306;SDS011;21420;52.196;21.416;2022-08-25T04:25:06;28.30;;;9.08;;
35306;SDS011;21420;52.196;21.416;2022-08-25T04:27:34;27.98;;;8.58;;
35306;SDS011;21420;52.196;21.416;2022-08-25T04:30:01;34.63;;;8.85;;
35306;SDS011;21420;52.196;21.416;2022-08-25T04:32:29;36.30;;;9.45;;
35306;SDS011;21420;52.196;21.416;2022-08-25T04:34:56;28.92;;;8.45;;
35306;SDS011;21420;52.196;21.416;2022-08-25T04:37:23;32.35;;;9.05;;
35306;SDS011;21420;52.196;21.416;2022-08-25T04:39:49;31.93;;;9.88;;
35306;SDS011;21420;52.196;21.416;2022-08-25T04:42:16;39.58;;;9.63;;
35306;SDS011;21420;52.196;21.416;2022-08-25T04:44:42;27.93;;;8.60;;
35306;SDS011;21420;52.196;21.416;2022-08-25T04:47:08;29.18;;;9.70;;
35306;SDS011;21420;52.196;21.416;2022-08-25T04:49:35;24.47;;;8.93;;
35306;SDS011;21420;52.196;21.416;2022-08-25T04:52:01;43.23;;;10.58;;
35306;SDS011;21420;52.196;21.416;2022-08-25T04:54:29;32.10;;;9.40;;
35306;SDS011;21420;52.196;21.416;2022-08-25T04:56:55;37.58;;;9.18;;
35306;SDS011;21420;52.196;21.416;2022-08-25T04:59:21;34.03;;;9.48;;
35306;SDS011;21420;52.196;21.416;2022-08-25T05:01:48;34.48;;;8.50;;
35306;SDS011;21420;52.196;21.416;2022-08-25T05:04:15;33.40;;;8.43;;
35306;SDS011;21420;52.196;21.416;2022-08-25T05:06:45;21.20;;;7.37;;
35306;SDS011;21420;52.196;21.416;2022-08-25T05:09:11;22.22;;;7.67;;
35306;SDS011;21420;52.196;21.416;2022-08-25T05:11:38;32.63;;;8.58;;
35306;SDS011;21420;52.196;21.416;2022-08-25T05:14:04;28.75;;;9.08;;
35306;SDS011;21420;52.196;21.416;2022-08-25T05:16:33;25.65;;;7.60;;
35306;SDS011;21420;52.196;21.416;2022-08-25T05:18:59;22.98;;;8.38;;
35306;SDS011;21420;52.196;21.416;2022-08-25T05:21:26;25.85;;;7.60;;
35306;SDS011;21420;52.196;21.416;2022-08-25T05:23:54;32.65;;;9.63;;
35306;SDS011;21420;52.196;21.416;2022-08-25T05:26:23;26.00;;;8.78;;
35306;SDS011;21420;52.196;21.416;2022-08-25T05:28:52;28.83;;;8.65;;
35306;SDS011;21420;52.196;21.416;2022-08-25T05:31:21;27.95;;;8.38;;
35306;SDS011;21420;52.196;21.416;2022-08-25T05:33:48;23.67;;;8.15;;
35306;SDS011;21420;52.196;21.416;2022-08-25T05:36:16;32.13;;;8.83;;
35306;SDS011;21420;52.196;21.416;2022-08-25T05:38:45;30.90;;;8.88;;
35306;SDS011;21420;52.196;21.416;2022-08-25T05:41:13;22.10;;;8.13;;
35306;SDS011;21420;52.196;21.416;2022-08-25T05:43:43;20.35;;;8.45;;
35306;SDS011;21420;52.196;21.416;2022-08-25T05:46:12;31.60;;;9.90;;
35306;SDS011;21420;52.196;21.416;2022-08-25T05:48:40;23.52;;;8.45;;
35306;SDS011;21420;52.196;21.416;2022-08-25T05:51:07;21.97;;;8.60;;
35306;SDS011;21420;52.196;21.416;2022-08-25T05:53:35;28.75;;;8.65;;
35306;SDS011;21420;52.196;21.416;2022-08-25T05:56:03;31.75;;;9.20;;
35306;SDS011;21420;52.196;21.416;2022-08-25T05:58:30;20.23;;;8.00;;
35306;SDS011;21420;52.196;21.416;2022-08-25T06:00:57;24.67;;;8.33;;
35306;SDS011;21420;52.196;21.416;2022-08-25T06:03:29;21.07;;;8.53;;
35306;SDS011;21420;52.196;21.416;2022-08-25T06:06:03;29.10;;;9.50;;
35306;SDS011;21420;52.196;21.416;2022-08-25T06:08:32;20.70;;;8.33;;
35306;SDS011;21420;52.196;21.416;2022-08-25T06:10:59;21.42;;;8.63;;
35306;SDS011;21420;52.196;21.416;2022-08-25T06:13:25;21.62;;;8.55;;
35306;SDS011;21420;52.196;21.416;2022-08-25T06:15:55;22.45;;;8.25;;
35306;SDS011;21420;52.196;21.416;2022-08-25T06:18:23;20.32;;;8.40;;
35306;SDS011;21420;52.196;21.416;2022-08-25T06:20:49;19.50;;;8.35;;
35306;SDS011;21420;52.196;21.416;2022-08-25T06:23:16;16.27;;;7.28;;
35306;SDS011;21420;52.196;21.416;2022-08-25T06:25:48;22.80;;;7.83;;
35306;SDS011;21420;52.196;21.416;2022-08-25T06:28:18;14.90;;;7.15;;
35306;SDS011;21420;52.196;21.416;2022-08-25T06:30:45;17.07;;;6.90;;
35306;SDS011;21420;52.196;21.416;2022-08-25T06:33:12;19.90;;;7.50;;
35306;SDS011;21420;52.196;21.416;2022-08-25T06:35:40;18.82;;;6.75;;
35306;SDS011;21420;52.196;21.416;2022-08-25T06:38:08;14.63;;;7.67;;
35306;SDS011;21420;52.196;21.416;2022-08-25T06:40:36;14.58;;;6.97;;
35306;SDS011;21420;52.196;21.416;2022-08-25T06:43:03;18.27;;;7.78;;
35306;SDS011;21420;52.196;21.416;2022-08-25T06:45:31;16.07;;;7.10;;
35306;SDS011;21420;52.196;21.416;2022-08-25T06:47:57;16.87;;;6.85;;
35306;SDS011;21420;52.196;21.416;2022-08-25T06:50:24;17.10;;;6.70;;
35306;SDS011;21420;52.196;21.416;2022-08-25T06:52:50;16.80;;;6.33;;
35306;SDS011;21420;52.196;21.416;2022-08-25T06:55:16;21.77;;;7.47;;
35306;SDS011;21420;52.196;21.416;2022-08-25T06:57:43;14.18;;;6.45;;
35306;SDS011;21420;52.196;21.416;2022-08-25T07:00:11;15.58;;;6.97;;
35306;SDS011;21420;52.196;21.416;2022-08-25T07:02:37;16.53;;;6.40;;
35306;SDS011;21420;52.196;21.416;2022-08-25T07:05:04;15.72;;;6.53;;
35306;SDS011;21420;52.196;21.416;2022-08-25T07:07:34;11.63;;;6.03;;
35306;SDS011;21420;52.196;21.416;2022-08-25T07:10:01;15.00;;;6.65;;
35306;SDS011;21420;52.196;21.416;2022-08-25T07:12:27;14.07;;;5.95;;
35306;SDS011;21420;52.196;21.416;2022-08-25T07:14:54;11.57;;;5.58;;
35306;SDS011;21420;52.196;21.416;2022-08-25T07:17:20;12.43;;;6.33;;
35306;SDS011;21420;52.196;21.416;2022-08-25T07:19:48;11.53;;;5.67;;
35306;SDS011;21420;52.196;21.416;2022-08-25T07:22:15;14.80;;;6.03;;
35306;SDS011;21420;52.196;21.416;2022-08-25T07:24:47;15.68;;;5.55;;
35306;SDS011;21420;52.196;21.416;2022-08-25T07:27:14;15.95;;;6.35;;
35306;SDS011;21420;52.196;21.416;2022-08-25T07:29:42;8.08;;;4.95;;
35306;SDS011;21420;52.196;21.416;2022-08-25T07:32:09;14.03;;;5.78;;
35306;SDS011;21420;52.196;21.416;2022-08-25T07:34:36;12.45;;;5.50;;
35306;SDS011;21420;52.196;21.416;2022-08-25T07:37:20;15.45;;;5.90;;
35306;SDS011;21420;52.196;21.416;2022-08-25T07:39:48;12.20;;;5.12;;
35306;SDS011;21420;52.196;21.416;2022-08-25T07:42:14;14.75;;;6.05;;
35306;SDS011;21420;52.196;21.416;2022-08-25T07:44:44;11.57;;;5.00;;
35306;SDS011;21420;52.196;21.416;2022-08-25T07:47:11;10.60;;;5.58;;
35306;SDS011;21420;52.196;21.416;2022-08-25T07:49:39;14.15;;;5.37;;
35306;SDS011;21420;52.196;21.416;2022-08-25T07:52:06;10.98;;;5.10;;
35306;SDS011;21420;52.196;21.416;2022-08-25T07:54:33;13.03;;;4.62;;
35306;SDS011;21420;52.196;21.416;2022-08-25T07:57:02;10.98;;;5.03;;
35306;SDS011;21420;52.196;21.416;2022-08-25T07:59:31;10.00;;;5.03;;
35306;SDS011;21420;52.196;21.416;2022-08-25T08:01:57;15.20;;;4.85;;
35306;SDS011;21420;52.196;21.416;2022-08-25T08:04:23;10.93;;;4.92;;
35306;SDS011;21420;52.196;21.416;2022-08-25T08:06:50;10.88;;;4.15;;
35306;SDS011;21420;52.196;21.416;2022-08-25T08:11:47;9.43;;;4.70;;
35306;SDS011;21420;52.196;21.416;2022-08-25T08:14:14;11.00;;;4.10;;
35306;SDS011;21420;52.196;21.416;2022-08-25T08:16:41;7.78;;;4.00;;
35306;SDS011;21420;52.196;21.416;2022-08-25T08:19:08;11.00;;;4.25;;
35306;SDS011;21420;52.196;21.416;2022-08-25T08:21:35;10.48;;;4.30;;
35306;SDS011;21420;52.196;21.416;2022-08-25T08:24:02;10.45;;;4.08;;
35306;SDS011;21420;52.196;21.416;2022-08-25T08:26:30;12.98;;;4.37;;
35306;SDS011;21420;52.196;21.416;2022-08-25T08:28:57;7.45;;;4.37;;
35306;SDS011;21420;52.196;21.416;2022-08-25T08:31:25;11.00;;;3.87;;
35306;SDS011;21420;52.196;21.416;2022-08-25T08:33:53;9.37;;;4.17;;
35306;SDS011;21420;52.196;21.416;2022-08-25T08:36:21;10.35;;;3.87;;
35306;SDS011;21420;52.196;21.416;2022-08-25T08:38:50;10.32;;;4.17;;
35306;SDS011;21420;52.196;21.416;2022-08-25T08:44:32;8.93;;;4.05;;
35306;SDS011;21420;52.196;21.416;2022-08-25T08:47:27;9.03;;;4.05;;
35306;SDS011;21420;52.196;21.416;2022-08-25T08:50:17;7.67;;;3.80;;
35306;SDS011;21420;52.196;21.416;2022-08-25T08:53:01;11.12;;;3.90;;
35306;SDS011;21420;52.196;21.416;2022-08-25T08:56:08;8.68;;;3.92;;
35306;SDS011;21420;52.196;21.416;2022-08-25T08:58:21;10.25;;;4.60;;
35306;SDS011;21420;52.196;21.416;2022-08-25T09:01:07;13.90;;;4.00;;
35306;SDS011;21420;52.196;21.416;2022-08-25T09:03:48;8.85;;;4.37;;
35306;SDS011;21420;52.196;21.416;2022-08-25T09:06:24;7.40;;;3.80;;
35306;SDS011;21420;52.196;21.416;2022-08-25T09:08:58;8.15;;;4.47;;
35306;SDS011;21420;52.196;21.416;2022-08-25T09:14:28;12.98;;;3.95;;
35306;SDS011;21420;52.196;21.416;2022-08-25T09:31:37;9.68;;;3.70;;
35306;SDS011;21420;52.196;21.416;2022-08-25T09:34:11;8.13;;;3.75;;
35306;SDS011;21420;52.196;21.416;2022-08-25T09:36:38;9.13;;;3.90;;
35306;SDS011;21420;52.196;21.416;2022-08-25T09:39:06;10.35;;;3.83;;
35306;SDS011;21420;52.196;21.416;2022-08-25T09:44:21;7.25;;;3.47;;
35306;SDS011;21420;52.196;21.416;2022-08-25T09:49:42;7.65;;;3.37;;
35306;SDS011;21420;52.196;21.416;2022-08-25T09:57:53;9.28;;;3.60;;
35306;SDS011;21420;52.196;21.416;2022-08-25T10:03:04;12.28;;;3.10;;
35306;SDS011;21420;52.196;21.416;2022-08-25T10:05:37;9.38;;;2.80;;
35306;SDS011;21420;52.196;21.416;2022-08-25T10:08:29;12.90;;;3.47;;
35306;SDS011;21420;52.196;21.416;2022-08-25T10:11:08;6.30;;;3.20;;
35306;SDS011;21420;52.196;21.416;2022-08-25T10:13:46;7.92;;;2.83;;
35306;SDS011;21420;52.196;21.416;2022-08-25T10:22:01;7.83;;;3.65;;
35306;SDS011;21420;52.196;21.416;2022-08-25T10:24:48;7.33;;;2.80;;
35306;SDS011;21420;52.196;21.416;2022-08-25T10:27:23;8.93;;;3.27;;
35306;SDS011;21420;52.196;21.416;2022-08-25T10:33:12;7.47;;;3.30;;
35306;SDS011;21420;52.196;21.416;2022-08-25T10:58:46;8.73;;;2.72;;
35306;SDS011;21420;52.196;21.416;2022-08-25T11:01:54;9.78;;;3.55;;
35306;SDS011;21420;52.196;21.416;2022-08-25T11:04:40;12.20;;;4.35;;
35306;SDS011;21420;52.196;21.416;2022-08-25T11:07:19;13.85;;;5.47;;
35306;SDS011;21420;52.196;21.416;2022-08-25T11:12:53;8.73;;;3.20;;
35306;SDS011;21420;52.196;21.416;2022-08-25T11:15:28;10.93;;;4.50;;
35306;SDS011;21420;52.196;21.416;2022-08-25T11:20:34;8.58;;;2.83;;
35306;SDS011;21420;52.196;21.416;2022-08-25T11:23:19;5.87;;;2.50;;
35306;SDS011;21420;52.196;21.416;2022-08-25T11:25:52;5.10;;;2.05;;
35306;SDS011;21420;52.196;21.416;2022-08-25T11:28:25;7.53;;;2.27;;
35306;SDS011;21420;52.196;21.416;2022-08-25T11:31:09;5.85;;;2.10;;
35306;SDS011;21420;52.196;21.416;2022-08-25T11:33:38;3.58;;;2.30;;
35306;SDS011;21420;52.196;21.416;2022-08-25T11:36:11;4.80;;;2.35;;
35306;SDS011;21420;52.196;21.416;2022-08-25T11:50:55;4.08;;;2.12;;
35306;SDS011;21420;52.196;21.416;2022-08-25T11:53:40;10.25;;;2.50;;
35306;SDS011;21420;52.196;21.416;2022-08-25T11:56:10;5.10;;;2.40;;
35306;SDS011;21420;52.196;21.416;2022-08-25T11:58:57;6.55;;;3.02;;
35306;SDS011;21420;52.196;21.416;2022-08-25T12:04:10;5.70;;;2.50;;
35306;SDS011;21420;52.196;21.416;2022-08-25T12:12:28;6.90;;;2.60;;
35306;SDS011;21420;52.196;21.416;2022-08-25T12:15:13;5.47;;;2.47;;
35306;SDS011;21420;52.196;21.416;2022-08-25T12:21:08;4.85;;;2.37;;
35306;SDS011;21420;52.196;21.416;2022-08-25T12:26:23;7.15;;;2.15;;
35306;SDS011;21420;52.196;21.416;2022-08-25T12:35:27;6.45;;;3.08;;
35306;SDS011;21420;52.196;21.416;2022-08-25T12:38:08;5.60;;;2.40;;
35306;SDS011;21420;52.196;21.416;2022-08-25T12:45:51;4.15;;;2.40;;
35306;SDS011;21420;52.196;21.416;2022-08-25T12:51:02;8.40;;;2.45;;
35306;SDS011;21420;52.196;21.416;2022-08-25T12:56:37;6.62;;;2.47;;
35306;SDS011;21420;52.196;21.416;2022-08-25T12:59:23;5.35;;;2.27;;
35306;SDS011;21420;52.196;21.416;2022-08-25T13:10:49;6.28;;;2.83;;
35306;SDS011;21420;52.196;21.416;2022-08-25T13:16:21;5.92;;;2.50;;
35306;SDS011;21420;52.196;21.416;2022-08-25T13:18:52;9.10;;;2.65;;
35306;SDS011;21420;52.196;21.416;2022-08-25T13:21:22;6.17;;;2.65;;
35306;SDS011;21420;52.196;21.416;2022-08-25T13:24:04;9.28;;;2.80;;
35306;SDS011;21420;52.196;21.416;2022-08-25T13:26:36;7.60;;;3.08;;
35306;SDS011;21420;52.196;21.416;2022-08-25T13:31:57;8.23;;;2.67;;
35306;SDS011;21420;52.196;21.416;2022-08-25T13:34:34;4.65;;;2.40;;
35306;SDS011;21420;52.196;21.416;2022-08-25T13:37:07;8.95;;;2.58;;
35306;SDS011;21420;52.196;21.416;2022-08-25T13:40:09;4.60;;;2.50;;
35306;SDS011;21420;52.196;21.416;2022-08-25T13:42:54;9.20;;;3.12;;
35306;SDS011;21420;52.196;21.416;2022-08-25T13:45:27;5.85;;;2.50;;
35306;SDS011;21420;52.196;21.416;2022-08-25T13:47:58;5.05;;;2.58;;
35306;SDS011;21420;52.196;21.416;2022-08-25T13:53:00;6.15;;;2.40;;
35306;SDS011;21420;52.196;21.416;2022-08-25T13:55:47;8.23;;;2.58;;
35306;SDS011;21420;52.196;21.416;2022-08-25T13:58:24;5.17;;;2.52;;
35306;SDS011;21420;52.196;21.416;2022-08-25T14:01:07;4.75;;;2.00;;
35306;SDS011;21420;52.196;21.416;2022-08-25T14:03:43;6.80;;;2.60;;
35306;SDS011;21420;52.196;21.416;2022-08-25T14:14:09;4.65;;;2.35;;
35306;SDS011;21420;52.196;21.416;2022-08-25T14:16:50;8.50;;;2.67;;
35306;SDS011;21420;52.196;21.416;2022-08-25T14:19:21;7.20;;;2.20;;
35306;SDS011;21420;52.196;21.416;2022-08-25T14:21:49;4.45;;;2.27;;
35306;SDS011;21420;52.196;21.416;2022-08-25T14:24:18;7.00;;;2.55;;
35306;SDS011;21420;52.196;21.416;2022-08-25T14:26:48;5.05;;;2.50;;
35306;SDS011;21420;52.196;21.416;2022-08-25T14:29:15;6.12;;;2.12;;
35306;SDS011;21420;52.196;21.416;2022-08-25T14:31:43;3.67;;;1.87;;
35306;SDS011;21420;52.196;21.416;2022-08-25T14:34:18;3.77;;;2.20;;
35306;SDS011;21420;52.196;21.416;2022-08-25T14:36:51;10.93;;;2.62;;
35306;SDS011;21420;52.196;21.416;2022-08-25T14:39:19;3.62;;;2.35;;
35306;SDS011;21420;52.196;21.416;2022-08-25T14:41:49;10.48;;;2.37;;
35306;SDS011;21420;52.196;21.416;2022-08-25T14:44:16;7.70;;;2.70;;
35306;SDS011;21420;52.196;21.416;2022-08-25T14:46:44;5.47;;;2.20;;
35306;SDS011;21420;52.196;21.416;2022-08-25T14:49:21;9.10;;;2.42;;
35306;SDS011;21420;52.196;21.416;2022-08-25T14:51:52;5.67;;;1.92;;
35306;SDS011;21420;52.196;21.416;2022-08-25T14:54:19;8.80;;;2.27;;
35306;SDS011;21420;52.196;21.416;2022-08-25T14:56:50;5.75;;;2.00;;
35306;SDS011;21420;52.196;21.416;2022-08-25T14:59:17;5.75;;;2.25;;
35306;SDS011;21420;52.196;21.416;2022-08-25T15:01:44;5.70;;;2.70;;
35306;SDS011;21420;52.196;21.416;2022-08-25T15:04:13;6.85;;;2.52;;
35306;SDS011;21420;52.196;21.416;2022-08-25T15:06:44;4.70;;;2.00;;
35306;SDS011;21420;52.196;21.416;2022-08-25T15:09:14;9.63;;;2.87;;
35306;SDS011;21420;52.196;21.416;2022-08-25T15:11:43;7.12;;;2.70;;
35306;SDS011;21420;52.196;21.416;2022-08-25T15:14:14;5.35;;;2.20;;
35306;SDS011;21420;52.196;21.416;2022-08-25T15:16:44;4.53;;;2.00;;
35306;SDS011;21420;52.196;21.416;2022-08-25T15:19:15;4.62;;;2.35;;
35306;SDS011;21420;52.196;21.416;2022-08-25T15:21:46;5.78;;;2.40;;
35306;SDS011;21420;52.196;21.416;2022-08-25T15:24:14;5.83;;;2.30;;
35306;SDS011;21420;52.196;21.416;2022-08-25T15:29:18;8.58;;;2.20;;
35306;SDS011;21420;52.196;21.416;2022-08-25T15:31:45;6.08;;;2.00;;
35306;SDS011;21420;52.196;21.416;2022-08-25T15:34:12;6.70;;;1.92;;
35306;SDS011;21420;52.196;21.416;2022-08-25T15:36:42;6.15;;;2.10;;
35306;SDS011;21420;52.196;21.416;2022-08-25T15:39:09;7.37;;;2.40;;
35306;SDS011;21420;52.196;21.416;2022-08-25T15:41:36;6.67;;;2.40;;
35306;SDS011;21420;52.196;21.416;2022-08-25T15:44:03;8.28;;;2.62;;
35306;SDS011;21420;52.196;21.416;2022-08-25T15:46:32;8.28;;;2.60;;
35306;SDS011;21420;52.196;21.416;2022-08-25T15:49:01;5.67;;;2.37;;
35306;SDS011;21420;52.196;21.416;2022-08-25T15:51:28;8.28;;;2.27;;
35306;SDS011;21420;52.196;21.416;2022-08-25T15:53:55;7.28;;;2.37;;
35306;SDS011;21420;52.196;21.416;2022-08-25T15:56:23;4.30;;;2.30;;
35306;SDS011;21420;52.196;21.416;2022-08-25T15:58:50;3.80;;;2.35;;
35306;SDS011;21420;52.196;21.416;2022-08-25T16:01:21;7.60;;;2.40;;
35306;SDS011;21420;52.196;21.416;2022-08-25T16:03:50;4.58;;;2.10;;
35306;SDS011;21420;52.196;21.416;2022-08-25T16:06:20;3.90;;;2.30;;
35306;SDS011;21420;52.196;21.416;2022-08-25T16:08:46;6.75;;;2.37;;
35306;SDS011;21420;52.196;21.416;2022-08-25T16:11:17;7.97;;;2.50;;
35306;SDS011;21420;52.196;21.416;2022-08-25T16:13:50;6.65;;;2.25;;
35306;SDS011;21420;52.196;21.416;2022-08-25T16:16:20;7.08;;;2.77;;
35306;SDS011;21420;52.196;21.416;2022-08-25T16:18:50;8.48;;;2.42;;
35306;SDS011;21420;52.196;21.416;2022-08-25T16:21:19;6.35;;;2.85;;
35306;SDS011;21420;52.196;21.416;2022-08-25T16:23:51;7.40;;;2.75;;
35306;SDS011;21420;52.196;21.416;2022-08-25T16:26:19;5.62;;;2.35;;
35306;SDS011;21420;52.196;21.416;2022-08-25T16:28:46;7.08;;;2.75;;
35306;SDS011;21420;52.196;21.416;2022-08-25T16:31:13;6.00;;;2.65;;
35306;SDS011;21420;52.196;21.416;2022-08-25T16:36:10;12.90;;;4.53;;
35306;SDS011;21420;52.196;21.416;2022-08-25T16:38:43;8.50;;;5.42;;
35306;SDS011;21420;52.196;21.416;2022-08-25T16:41:15;7.72;;;3.80;;
35306;SDS011;21420;52.196;21.416;2022-08-25T16:43:42;6.92;;;2.90;;
35306;SDS011;21420;52.196;21.416;2022-08-25T16:46:10;8.25;;;2.62;;
35306;SDS011;21420;52.196;21.416;2022-08-25T16:48:39;6.87;;;3.10;;
35306;SDS011;21420;52.196;21.416;2022-08-25T16:51:08;10.50;;;3.47;;
35306;SDS011;21420;52.196;21.416;2022-08-25T16:53:38;14.03;;;4.67;;
35306;SDS011;21420;52.196;21.416;2022-08-25T16:56:27;13.28;;;6.00;;
35306;SDS011;21420;52.196;21.416;2022-08-25T16:58:55;12.28;;;4.83;;
35306;SDS011;21420;52.196;21.416;2022-08-25T17:03:52;9.38;;;3.22;;
35306;SDS011;21420;52.196;21.416;2022-08-25T17:06:23;7.33;;;2.55;;
35306;SDS011;21420;52.196;21.416;2022-08-25T17:11:19;6.92;;;3.22;;
35306;SDS011;21420;52.196;21.416;2022-08-25T17:13:51;11.33;;;3.10;;
35306;SDS011;21420;52.196;21.416;2022-08-25T17:16:24;9.68;;;3.42;;
35306;SDS011;21420;52.196;21.416;2022-08-25T17:18:58;10.80;;;3.65;;
35306;SDS011;21420;52.196;21.416;2022-08-25T17:21:33;8.85;;;3.50;;
35306;SDS011;21420;52.196;21.416;2022-08-25T17:24:03;7.03;;;3.10;;
35306;SDS011;21420;52.196;21.416;2022-08-25T17:26:31;10.70;;;3.75;;
35306;SDS011;21420;52.196;21.416;2022-08-25T17:29:00;8.45;;;3.35;;
35306;SDS011;21420;52.196;21.416;2022-08-25T17:31:29;11.17;;;3.40;;
35306;SDS011;21420;52.196;21.416;2022-08-25T17:33:56;12.63;;;4.22;;